Latest Weather Observations for Telfer

IDW60801

Issued at 12:02 pm WST Monday 30 March 2015 (issued every 30 minutes, with the page automatically refreshed every 10 minutes)

About weather observations | Map of weather stations | Latest weather observations for WA | Other Formats
Station Details ID: 013030 Name: TELFER AERO Lat: -21.71 Lon: 122.23 Height: 291.9 m
Data from the previous 72 hours. | See also: Recent months at Telfer
Date/Time
WST
Temp
°C
App
Temp
°C
Dew
Point
Rel
Hum
%
Delta-T
°C
Wind Press
QNH
hPa
Press
MSL
hPa
Rain
since 9 am
mm
Dir
 
Spd
km/h
Gust
km/h
Spd
kts
Gust
kts
30/12:00pm 34.0 29.5 7.1 19 15.0 E 20 28 11 15 1015.2 1013.0 0.0
30/11:30am 33.8 29.5 7.7 20 14.7 E 20 30 11 16 1015.6 1013.4 0.0
30/11:00am 34.0 29.7 7.9 20 14.7 E 20 30 11 16 1016.1 1013.9 0.0
30/10:30am 33.9 28.5 7.8 20 14.7 E 26 35 14 19 1016.6 1014.4 0.0
30/10:00am 33.1 28.2 8.5 22 13.9 E 24 33 13 18 1017.0 1014.7 0.0
30/09:30am 32.2 27.5 9.1 24 13.2 E 24 33 13 18 1017.2 1014.9 0.0
30/09:00am 30.6 25.8 8.9 26 12.2 E 24 32 13 17 1017.2 1014.9 0.0
30/08:30am 30.1 26.2 9.6 28 11.7 ESE 20 30 11 16 1017.2 1014.9 0.0
30/08:00am 29.6 26.0 9.7 29 11.3 ESE 19 26 10 14 1017.0 1014.7 0.0
30/07:30am 29.0 26.0 10.6 32 10.6 E 17 20 9 11 1016.6 1014.4 0.0
30/07:00am 28.8 26.0 11.4 34 10.1 E 17 22 9 12 1016.4 1014.2 0.0
30/06:30am 28.6 25.8 11.2 34 10.1 E 17 22 9 12 1015.9 1013.7 0.0
30/06:00am 27.5 26.5 12.3 39 8.9 ESE 9 11 5 6 1015.7 1013.5 0.0
30/05:30am 27.8 26.1 12.6 39 9.0 ESE 13 15 7 8 1015.3 1013.1 0.0
30/05:00am 28.0 26.4 12.8 39 9.0 E 13 17 7 9 1015.3 1013.1 0.0
30/04:30am 28.7 27.0 12.6 37 9.6 ENE 13 17 7 9 1014.6 1012.4 0.0
30/04:00am 28.3 27.5 13.0 39 9.1 NE 9 13 5 7 1014.3 1012.0 0.0
30/03:30am 29.0 29.8 13.6 38 9.3 SE 2 6 1 3 1014.1 1011.8 0.0
30/03:00am 29.2 28.4 13.0 37 9.7 SSE 9 11 5 6 1014.1 1011.8 0.0
30/02:30am 29.6 28.0 12.9 35 10.0 SSE 13 15 7 8 1014.1 1011.8 0.0
30/02:00am 30.3 28.4 11.8 32 10.9 S 13 17 7 9 1014.2 1011.9 0.0
30/01:30am 29.7 27.7 12.6 35 10.2 SSE 15 20 8 11 1014.5 1012.3 0.0
30/01:00am 29.6 28.0 13.8 38 9.6 SSE 15 20 8 11 1014.9 1012.7 0.0
30/12:30am 29.9 27.0 12.8 35 10.2 E 20 43 11 23 1015.8 1013.6 0.0
30/12:26am 30.7 28.7 11.6 31 11.2 ENE 13 43 7 23 1016.0 1013.8 0.0
30/12:00am 30.7 29.9 11.6 31 11.2 NE 7 15 4 8 1016.2 1014.0 0.0
 
Date/Time
WST
Temp
°C
App
Temp
°C
Dew
Point
Rel
Hum
%
Delta-T
°C
Wind Press
QNH
hPa
Press
MSL
hPa
Rain
since 9 am
mm
Dir
 
Spd
km/h
Gust
km/h
Spd
kts
Gust
kts
29/11:30pm 30.8 28.3 12.2 32 11.1 NNE 17 24 9 13 1016.6 1014.4 0.0
29/11:00pm 29.8 25.8 11.8 33 10.6 N 24 37 13 20 1016.9 1014.6 0.0
29/10:30pm 31.0 28.0 12.4 32 11.1 NE 20 44 11 24 1016.6 1014.4 0.0
29/10:28pm 30.8 28.0 12.7 33 10.8 ENE 19 44 10 24 1016.6 1014.4 0.0
29/10:00pm 30.6 28.1 11.1 30 11.4 ENE 15 20 8 11 1017.0 1014.7 0.0
29/09:30pm 30.6 28.9 11.1 30 11.4 ENE 11 15 6 8 1017.2 1014.9 0.0
29/09:00pm 30.3 27.1 11.8 32 10.9 NNE 20 32 11 17 1017.4 1015.1 0.0
29/08:30pm 30.3 30.4 12.7 34 10.5 N 4 9 2 5 1017.2 1014.9 0.0
29/08:00pm 30.5 31.3 12.4 33 10.8 CALM 0 0 0 0 1016.9 1014.6 0.0
29/07:30pm 30.5 31.3 12.4 33 10.8 CALM 0 2 0 1 1016.5 1014.3 0.0
29/07:00pm 30.6 29.7 12.5 33 10.8 SSE 9 13 5 7 1016.3 1014.1 0.0
29/06:30pm 30.3 29.4 12.7 34 10.5 SSW 9 11 5 6 1016.2 1014.0 0.0
29/06:00pm 30.2 28.8 13.5 36 10.1 SSE 13 17 7 9 1015.9 1013.7 0.0
29/05:30pm 31.5 28.8 11.8 30 11.7 SE 17 20 9 11 1015.8 1013.6 0.0
29/05:00pm 31.2 28.2 12.5 31 11.2 SE 20 28 11 15 1015.5 1013.3 0.0
29/04:30pm 31.4 27.1 12.2 30 11.4 ESE 26 33 14 18 1015.3 1013.1 0.0
29/04:00pm 32.9 29.0 10.9 26 12.9 ENE 22 33 12 18 1015.1 1012.9 0.0
29/03:30pm 33.3 30.1 11.2 26 13.1 NE 19 28 10 15 1014.8 1012.6 0.0
29/03:00pm 33.8 31.3 11.0 25 13.5 E 15 20 8 11 1014.6 1012.4 0.0
29/02:30pm 32.9 31.3 11.4 27 12.7 NE 11 19 6 10 1014.7 1012.5 0.0
29/02:00pm 32.8 28.5 11.9 28 12.5 N 26 37 14 20 1014.8 1012.6 0.0
29/01:30pm 34.1 30.0 10.0 23 14.0 NE 22 30 12 16 1014.8 1012.6 0.0
29/01:00pm 34.0 29.8 9.9 23 14.0 NE 22 32 12 17 1015.1 1012.9 0.0
29/12:30pm 33.7 30.8 10.9 25 13.5 NNE 17 26 9 14 1015.5 1013.3 0.0
29/12:00pm 34.6 31.0 11.7 25 13.7 NE 22 35 12 19 1015.8 1013.6 0.0
29/11:30am 34.4 30.1 10.9 24 13.9 NE 24 33 13 18 1016.1 1013.9 0.0
29/11:00am 34.9 30.8 11.3 24 14.1 NE 24 35 13 19 1016.5 1014.3 0.0
29/10:30am 33.9 30.5 11.1 25 13.5 NE 20 32 11 17 1016.9 1014.6 0.0
29/10:00am 33.4 30.2 11.3 26 13.1 ENE 19 28 10 15 1017.0 1014.7 0.0
29/09:30am 32.1 29.5 10.7 27 12.5 ESE 15 26 8 14 1017.0 1014.7 0.0
29/09:00am 31.5 28.8 11.8 30 11.7 E 17 20 9 11 1017.2 1014.9 0.0
29/08:30am 30.7 28.4 11.6 31 11.2 E 15 20 8 11 1017.1 1014.8 0.0
29/08:00am 28.7 26.2 12.2 36 9.7 SE 17 19 9 10 1016.8 1014.5 0.0
29/07:30am 26.5 23.6 12.2 41 8.3 SE 19 22 10 12 1016.6 1014.4 0.0
29/07:00am 26.1 23.8 11.8 41 8.3 SE 15 19 8 10 1016.2 1014.0 0.0
29/06:30am 25.6 23.3 11.7 42 8.0 SE 15 17 8 9 1015.8 1013.6 0.0
29/06:00am 25.6 23.3 11.7 42 8.0 SSE 15 19 8 10 1015.5 1013.3 0.0
29/05:30am 25.8 23.5 11.9 42 8.1 SSE 15 17 8 9 1015.3 1013.1 0.0
29/05:00am 25.7 24.2 11.8 42 8.0 SE 11 15 6 8 1015.2 1013.0 0.0
29/04:30am 25.9 23.6 11.6 40 8.2 SSE 15 19 8 10 1014.8 1012.6 0.0
29/04:00am 26.1 23.4 11.8 41 8.3 SSE 17 20 9 11 1014.7 1012.5 0.0
29/03:30am 26.4 24.1 11.7 40 8.5 SSE 15 19 8 10 1014.6 1012.4 0.0
29/03:00am 26.3 24.2 11.2 38 8.7 SE 13 17 7 9 1014.7 1012.5 0.0
29/02:30am 26.7 24.2 11.2 38 8.9 SE 15 17 8 9 1014.7 1012.5 0.0
29/02:00am 27.6 24.8 11.2 36 9.5 SSE 17 22 9 12 1014.7 1012.5 0.0
29/01:30am 27.7 25.9 12.1 38 9.1 SSE 13 17 7 9 1014.9 1012.7 0.0
29/01:00am 27.5 26.3 12.7 40 8.7 ESE 11 17 6 9 1014.9 1012.7 0.0
29/12:30am 28.7 26.9 13.4 39 9.2 SSE 15 19 8 10 1015.0 1012.8 0.0
29/12:00am 28.8 28.2 13.5 39 9.2 SSE 9 13 5 7 1015.2 1013.0 0.0
 
Date/Time
WST
Temp
°C
App
Temp
°C
Dew
Point
Rel
Hum
%
Delta-T
°C
Wind Press
QNH
hPa
Press
MSL
hPa
Rain
since 9 am
mm
Dir
 
Spd
km/h
Gust
km/h
Spd
kts
Gust
kts
28/11:30pm 29.3 28.7 13.5 38 9.5 SE 9 13 5 7 1015.2 1013.0 0.0
28/11:00pm 29.4 28.7 13.2 37 9.7 SSE 9 11 5 6 1015.2 1013.0 0.0
28/10:30pm 29.0 28.5 12.8 36 9.7 E 7 9 4 5 1015.3 1013.1 0.0
28/10:00pm 29.1 28.3 12.9 37 9.7 SE 9 11 5 6 1015.5 1013.3 0.0
28/09:30pm 29.7 29.2 12.6 35 10.2 NE 7 9 4 5 1015.4 1013.2 0.0
28/09:00pm 30.4 29.4 12.3 33 10.8 ENE 9 11 5 6 1015.2 1013.0 0.0
28/08:30pm 30.5 29.4 11.9 31 11.0 ENE 9 11 5 6 1014.9 1012.7 0.0
28/08:00pm 31.4 29.3 11.2 29 11.9 ENE 13 20 7 11 1014.5 1012.3 0.0
28/07:30pm 30.8 28.7 9.6 27 12.1 SE 11 13 6 7 1013.9 1011.6 0.0
28/07:00pm 31.7 29.5 9.3 25 12.8 SE 11 13 6 7 1013.4 1011.1 0.0
28/06:30pm 32.5 30.3 9.3 24 13.3 ESE 11 13 6 7 1013.2 1010.9 0.0
28/06:00pm 34.0 31.0 9.3 22 14.2 SE 15 19 8 10 1012.9 1010.7 0.0
28/05:30pm 34.9 31.4 8.6 20 15.1 SE 17 22 9 12 1012.6 1010.4 0.0
28/05:00pm 35.3 31.3 8.9 20 15.2 SE 20 32 11 17 1012.4 1010.2 0.0
28/04:30pm 36.0 32.1 8.7 19 15.7 ESE 19 24 10 13 1012.3 1010.1 0.0
28/04:00pm 35.9 32.0 8.7 19 15.7 SE 19 33 10 18 1012.4 1010.2 0.0
28/03:30pm 35.8 31.9 8.6 19 15.6 SE 19 28 10 15 1012.4 1010.2 0.0
28/03:00pm 36.3 33.4 9.8 20 15.6 SE 15 30 8 16 1012.4 1010.2 0.0
28/02:30pm 36.4 32.8 9.8 20 15.6 SE 19 26 10 14 1012.6 1010.4 0.0
28/02:00pm 35.7 32.3 9.3 20 15.3 SE 17 32 9 17 1012.9 1010.7 0.0
28/01:30pm 35.9 32.9 9.4 20 15.4 E 15 32 8 17 1013.4 1011.1 0.0
28/01:00pm 35.8 32.4 9.3 20 15.4 ENE 17 41 9 22 1013.8 1011.5 0.0
28/12:30pm 35.4 32.9 9.7 21 15.0 NE 13 30 7 16 1014.2 1011.9 0.0
28/12:00pm 34.8 32.4 9.9 22 14.5 E 13 24 7 13 1014.8 1012.6 0.0
28/11:30am 34.2 31.4 10.1 23 14.1 ESE 15 32 8 17 1015.5 1013.3 0.0
28/11:00am 33.4 30.6 11.3 26 13.1 ESE 17 28 9 15 1016.0 1013.8 0.0
28/10:30am 31.7 27.7 10.4 27 12.4 SE 22 30 12 16 1016.3 1014.1 0.0
28/10:00am 31.0 26.9 11.4 30 11.5 SE 24 33 13 18 1016.6 1014.4 0.0
28/09:30am 29.8 25.3 11.3 32 10.8 SE 26 41 14 22 1016.8 1014.5 0.0
28/09:00am 28.1 23.5 11.2 35 9.8 SE 26 32 14 17 1016.8 1014.5 0.0
28/08:30am 26.7 21.9 11.6 39 8.7 SE 28 35 15 19 1016.9 1014.6 0.0
28/08:00am 25.6 20.4 11.7 42 8.0 SE 30 37 16 20 1017.0 1014.7 0.0
28/07:30am 23.8 18.1 11.8 47 6.9 SE 33 43 18 23 1016.5 1014.3 0.0
28/07:00am 22.8 18.0 11.5 49 6.4 SE 28 37 15 20 1016.3 1014.1 0.0
28/06:30am 22.0 17.9 11.4 51 6.0 SE 24 30 13 16 1016.2 1014.0 0.0
28/06:00am 21.9 18.1 11.3 51 6.0 SE 22 30 12 16 1015.7 1013.5 0.0
28/05:30am 22.1 17.8 10.9 49 6.3 SE 24 32 13 17 1015.5 1013.3 0.0
28/05:00am 22.5 18.5 10.6 47 6.6 SE 22 28 12 15 1015.5 1013.3 0.0
28/04:30am 22.9 18.5 10.3 45 7.0 SE 24 28 13 15 1015.6 1013.4 0.0
28/04:00am 23.2 18.4 10.3 44 7.2 SE 26 32 14 17 1015.5 1013.3 0.0
28/03:30am 23.5 17.9 10.2 43 7.4 SE 30 37 16 20 1015.2 1013.0 0.0
28/03:00am 23.8 18.5 9.8 41 7.7 SE 28 35 15 19 1015.3 1013.1 0.0
28/02:30am 24.1 17.8 9.7 40 8.0 SE 33 46 18 25 1015.5 1013.3 0.0
28/02:00am 24.3 17.9 9.5 39 8.2 SE 33 44 18 24 1015.5 1013.3 0.0
28/01:30am 24.5 18.1 9.3 38 8.4 SE 33 41 18 22 1015.9 1013.7 0.0
28/01:00am 24.5 18.6 8.9 37 8.5 SE 30 44 16 24 1016.2 1014.0 0.0
28/12:30am 24.6 18.2 8.5 36 8.7 SE 32 39 17 21 1016.5 1014.3 0.0
28/12:00am 24.8 17.8 8.3 35 8.9 SE 35 46 19 25 1016.4 1014.2 0.0
 
Date/Time
WST
Temp
°C
App
Temp
°C
Dew
Point
Rel
Hum
%
Delta-T
°C
Wind Press
QNH
hPa
Press
MSL
hPa
Rain
since 9 am
mm
Dir
 
Spd
km/h
Gust
km/h
Spd
kts
Gust
kts
27/11:30pm 25.2 17.7 7.8 33 9.4 SSE 37 50 20 27 1016.8 1014.5 0.0
27/11:00pm 25.4 18.3 8.0 33 9.4 SSE 35 48 19 26 1016.9 1014.6 0.0
27/10:30pm 25.6 18.1 8.1 33 9.5 SSE 37 52 20 28 1017.0 1014.7 0.0
27/10:00pm 26.0 17.9 8.5 33 9.6 SSE 41 57 22 31 1016.9 1014.6 0.0
27/09:47pm 26.2 18.5 8.7 33 9.6 SSE 39 61 21 33 1016.9 1014.6 0.0
27/09:30pm 26.4 18.9 9.3 34 9.5 SSE 39 52 21 28 1016.9 1014.6 0.0
27/09:01pm 27.1 20.0 9.5 33 9.9 SSE 37 56 20 30 1016.5 1014.3 0.0
27/09:00pm 27.2 20.4 9.1 32 10.1 SSE 35 50 19 27 1016.6 1014.4 0.0
27/08:30pm 28.2 20.1 9.9 32 10.4 SSE 43 57 23 31 1016.1 1013.9 0.0
27/08:00pm 30.3 24.1 11.3 31 11.1 SSE 35 46 19 25 1015.6 1013.4 0.0
27/07:46pm 31.1 28.0 11.5 30 11.5 SSE 19 35 10 19 1015.3 1013.1 0.0
27/07:30pm 32.0 30.2 10.7 27 12.4 SE 11 13 6 7 1014.5 1012.3 0.0
27/07:00pm 31.9 30.8 10.6 27 12.4 E 7 9 4 5 1014.3 1012.0 0.0
27/06:30pm 33.4 31.9 10.7 25 13.3 ENE 9 11 5 6 1013.9 1011.6 0.0
27/06:00pm 34.6 32.9 9.8 22 14.4 ENE 9 13 5 7 1013.5 1011.2 0.0
27/05:30pm 35.6 33.2 9.9 21 15.1 ENE 13 17 7 9 1013.2 1010.9 0.0
27/05:00pm 36.0 34.2 9.5 20 15.5 NNE 9 17 5 9 1012.9 1010.7 0.0
27/04:30pm 36.9 35.1 9.5 19 16.0 NNW 9 17 5 9 1012.8 1010.6 0.0
27/04:00pm 36.2 33.7 9.7 20 15.5 NNE 13 26 7 14 1012.8 1010.6 0.0
27/03:30pm 37.0 34.1 9.6 19 16.1 NE 15 28 8 15 1012.7 1010.5 0.0
27/03:00pm 37.2 33.6 9.7 19 16.2 ENE 19 28 10 15 1012.9 1010.7 0.0
27/02:30pm 37.4 34.0 10.7 20 15.9 E 19 35 10 19 1013.0 1010.8 0.0
27/02:00pm 37.0 33.6 11.1 21 15.5 ENE 20 30 11 16 1013.4 1011.1 0.0
27/01:30pm 36.1 32.6 11.0 22 15.0 NE 20 32 11 17 1013.7 1011.4 0.0
27/01:00pm 36.4 32.3 11.3 22 15.1 NNE 24 37 13 20 1014.3 1012.0 0.0
27/12:30pm 36.1 31.7 11.7 23 14.7 ENE 26 37 14 20 1014.8 1012.6 0.0

Other Formats:

Comma delimited format used in spreadsheet applications
http://www.bom.gov.au/fwo/IDW60801/IDW60801.94319.axf

JavaScript Object Notation format (JSON) in row-major order
http://www.bom.gov.au/fwo/IDW60801/IDW60801.94319.json